Time;durP1;ratioP1;P1;durP2;ratioP2;P2;SDS_P1;SDS_P2;PMS_P1;PMS_P2;Temp;Humidity;BMP_temperature;BMP_pressure;BME280_temperature;BME280_humidity;BME280_pressure;Samples;Min_cycle;Max_cycle;Signal;HPM_P1;HPM_P2
2023/03/29 00:02:30;;;;;;;;;;;6.40;99.90;;;;;;5010647;28;19920;-65
2023/03/29 00:04:56;;;;;;;;;;;6.40;99.90;;;;;;5005877;28;19963;-65
2023/03/29 00:07:22;;;;;;;;;;;6.40;99.90;;;;;;5011421;28;20315;-65
2023/03/29 00:09:48;;;;;;;;;;;6.40;99.90;;;;;;5005361;28;20009;-65
2023/03/29 00:12:14;;;;;;;;;;;6.40;99.90;;;;;;5005825;28;20360;-64
2023/03/29 00:14:39;;;;;;;;;;;6.30;99.90;;;;;;5005902;28;19916;-65
2023/03/29 00:17:05;;;;;;;;;;;6.30;99.90;;;;;;5010178;28;20008;-65
2023/03/29 00:19:34;;;;;;;;;;;6.40;99.90;;;;;;5012009;28;20386;-65
2023/03/29 00:22:00;;;;;;;;;;;6.40;99.90;;;;;;5006884;28;20494;-64
2023/03/29 00:24:26;;;;;;;;;;;6.40;99.90;;;;;;5008693;28;20063;-65
2023/03/29 00:26:51;;;;;;;;;;;6.40;99.90;;;;;;5004404;28;20344;-65
2023/03/29 00:29:17;;;;;;;;;;;6.40;99.90;;;;;;5008916;28;19918;-64
2023/03/29 00:31:44;;;;;;;;;;;6.40;99.90;;;;;;5006156;28;19920;-64
2023/03/29 00:34:10;;;;;;;;;;;6.50;99.90;;;;;;5004256;28;19914;-66
2023/03/29 00:36:35;;;;;;;;;;;6.40;99.90;;;;;;5008263;28;20569;-65
2023/03/29 00:39:01;;;;;;;;;;;6.50;99.90;;;;;;5005734;28;19920;-64
2023/03/29 00:41:26;;;;;;;;;;;6.60;99.90;;;;;;5005615;28;20367;-64
2023/03/29 00:43:59;;;;;;;;;;;6.50;99.90;;;;;;5002731;28;20455;-65
2023/03/29 00:46:26;;;;;;;;;;;6.60;99.90;;;;;;5007291;28;20339;-65
2023/03/29 00:48:52;;;;;;;;;;;6.60;99.90;;;;;;5007068;28;20295;-66
2023/03/29 00:51:20;;;;;;;;;;;6.60;99.90;;;;;;5006586;28;20036;-65
2023/03/29 00:53:47;;;;;;;;;;;6.50;99.90;;;;;;5008157;28;19916;-65
2023/03/29 00:56:17;;;;;;;;;;;6.50;99.90;;;;;;5006267;28;19913;-65
2023/03/29 00:58:46;;;;;;;;;;;6.50;99.90;;;;;;5002720;28;19909;-64
2023/03/29 01:01:18;;;;;;;;;;;6.50;99.90;;;;;;5002011;28;21283;-65
2023/03/29 01:03:46;;;;;;;;;;;6.50;99.90;;;;;;5005252;28;20356;-64
2023/03/29 01:06:13;;;;;;;;;;;6.50;99.90;;;;;;5003969;28;19955;-65
2023/03/29 01:08:41;;;;;;;;;;;6.50;99.90;;;;;;5005305;28;19928;-64
2023/03/29 01:11:13;;;;;;;;;;;6.40;99.90;;;;;;5002126;28;19916;-65
2023/03/29 01:13:40;;;;;;;;;;;6.50;99.90;;;;;;5005453;28;19980;-66
2023/03/29 01:16:07;;;;;;;;;;;6.50;99.90;;;;;;5001437;28;20008;-64
2023/03/29 01:18:32;;;;;;;;;;;6.50;99.90;;;;;;5009584;28;19916;-66
2023/03/29 01:21:13;;;;;;;;;;;6.50;99.90;;;;;;5006597;28;19926;-65
2023/03/29 01:23:46;;;;;;;;;;;6.50;99.90;;;;;;5004990;28;19909;-66
2023/03/29 01:26:17;;;;;;;;;;;6.50;99.90;;;;;;5005958;28;19913;-64
2023/03/29 01:28:49;;;;;;;;;;;6.60;99.90;;;;;;5004024;28;19933;-64
2023/03/29 01:31:35;;;;;;;;;;;6.60;99.90;;;;;;5002142;28;19917;-65
2023/03/29 01:34:13;;;;;;;;;;;6.50;99.90;;;;;;5003941;28;19918;-64
2023/03/29 01:36:43;;;;;;;;;;;6.50;99.90;;;;;;5007735;28;20290;-65
2023/03/29 01:39:08;;;;;;;;;;;6.50;99.90;;;;;;5002475;28;20021;-65
2023/03/29 01:41:38;;;;;;;;;;;6.50;99.90;;;;;;5005825;28;19917;-63
2023/03/29 01:44:06;;;;;;;;;;;6.60;99.90;;;;;;5003536;28;19987;-64
2023/03/29 01:46:34;;;;;;;;;;;6.60;99.90;;;;;;5003776;28;19961;-64
2023/03/29 01:49:00;;;;;;;;;;;6.60;99.90;;;;;;5009879;28;20287;-64
2023/03/29 01:51:36;;;;;;;;;;;6.60;99.90;;;;;;5006097;28;19950;-64
2023/03/29 01:54:13;;;;;;;;;;;6.70;99.90;;;;;;5007421;28;19952;-64
2023/03/29 01:56:40;;;;;;;;;;;6.70;99.90;;;;;;5002083;28;19975;-65
2023/03/29 01:59:17;;;;;;;;;;;6.60;99.90;;;;;;5005168;28;19917;-64
2023/03/29 02:01:47;;;;;;;;;;;6.50;99.90;;;;;;5004577;28;19922;-66
2023/03/29 02:04:15;;;;;;;;;;;6.60;99.90;;;;;;5004127;28;19920;-65
2023/03/29 02:06:41;;;;;;;;;;;6.50;99.90;;;;;;5006629;28;20468;-64
2023/03/29 02:09:07;;;;;;;;;;;6.50;99.90;;;;;;5011058;28;19920;-64
2023/03/29 02:11:33;;;;;;;;;;;6.50;99.90;;;;;;5004638;28;19921;-64
2023/03/29 02:13:59;;;;;;;;;;;6.60;99.90;;;;;;5005582;28;19956;-65
2023/03/29 02:16:25;;;;;;;;;;;6.60;99.90;;;;;;5005448;28;19964;-65
2023/03/29 02:18:51;;;;;;;;;;;6.60;99.90;;;;;;5004778;28;19935;-64
2023/03/29 02:21:24;;;;;;;;;;;6.70;99.90;;;;;;5005216;28;19921;-62
2023/03/29 02:23:53;;;;;;;;;;;6.70;99.90;;;;;;5006108;28;19922;-65
2023/03/29 02:26:19;;;;;;;;;;;6.70;99.90;;;;;;4999829;28;20017;-65
2023/03/29 02:28:44;;;;;;;;;;;6.70;99.90;;;;;;5005656;28;20976;-63
2023/03/29 02:31:17;;;;;;;;;;;6.70;99.90;;;;;;5005695;28;19968;-63
2023/03/29 02:33:51;;;;;;;;;;;6.70;99.90;;;;;;5010334;28;19913;-65
2023/03/29 02:36:23;;;;;;;;;;;6.60;99.90;;;;;;5006811;28;19924;-65
2023/03/29 02:38:48;;;;;;;;;;;6.70;99.90;;;;;;5010883;28;19918;-65
2023/03/29 02:41:15;;;;;;;;;;;6.70;99.90;;;;;;5009516;28;19913;-64
2023/03/29 02:43:41;;;;;;;;;;;6.60;99.90;;;;;;5005522;28;20291;-64
2023/03/29 02:46:07;;;;;;;;;;;6.70;99.90;;;;;;5008877;28;19913;-64
2023/03/29 02:48:34;;;;;;;;;;;6.70;99.90;;;;;;5006027;28;20009;-64
2023/03/29 02:51:01;;;;;;;;;;;6.60;99.90;;;;;;5004852;28;19925;-65
2023/03/29 02:53:39;;;;;;;;;;;6.60;99.90;;;;;;5010433;28;20824;-65
2023/03/29 02:56:04;;;;;;;;;;;6.60;99.90;;;;;;5009585;28;20000;-64
2023/03/29 02:58:30;;;;;;;;;;;6.70;99.90;;;;;;5008802;28;20001;-64
2023/03/29 03:00:57;;;;;;;;;;;6.60;99.90;;;;;;5004975;28;20019;-64
2023/03/29 03:03:22;;;;;;;;;;;6.60;99.90;;;;;;5009391;28;20311;-65
2023/03/29 03:05:49;;;;;;;;;;;6.70;99.90;;;;;;5009568;28;19917;-65
2023/03/29 03:08:15;;;;;;;;;;;6.70;99.90;;;;;;5005775;28;19921;-65
2023/03/29 03:10:40;;;;;;;;;;;6.70;99.90;;;;;;5005946;28;20295;-64
2023/03/29 03:13:06;;;;;;;;;;;6.70;99.90;;;;;;5006835;28;19913;-64
2023/03/29 03:15:34;;;;;;;;;;;6.60;99.90;;;;;;5009480;28;20000;-65
2023/03/29 03:18:01;;;;;;;;;;;6.70;99.90;;;;;;5007010;28;20088;-66
2023/03/29 03:20:26;;;;;;;;;;;6.70;99.90;;;;;;5008521;28;20268;-65
2023/03/29 03:22:51;;;;;;;;;;;6.70;99.90;;;;;;5007719;28;19921;-64
2023/03/29 03:25:20;;;;;;;;;;;6.70;99.90;;;;;;5008643;28;20380;-65
2023/03/29 03:27:47;;;;;;;;;;;6.80;99.90;;;;;;5010780;28;19921;-64
2023/03/29 03:30:12;;;;;;;;;;;6.80;99.90;;;;;;5004363;28;19914;-65
2023/03/29 03:32:38;;;;;;;;;;;6.80;99.90;;;;;;5009981;28;20410;-65
2023/03/29 03:35:04;;;;;;;;;;;6.80;99.90;;;;;;5010333;28;19984;-65
2023/03/29 03:37:30;;;;;;;;;;;6.80;99.90;;;;;;5011651;28;19914;-65
2023/03/29 03:39:55;;;;;;;;;;;6.80;99.90;;;;;;5005970;28;19914;-64
2023/03/29 03:42:21;;;;;;;;;;;6.70;99.90;;;;;;4997505;28;19920;-65
2023/03/29 03:44:47;;;;;;;;;;;6.70;99.90;;;;;;5005488;28;19921;-64
2023/03/29 03:47:13;;;;;;;;;;;6.80;99.90;;;;;;5009857;28;19996;-63
2023/03/29 03:49:39;;;;;;;;;;;6.80;99.90;;;;;;5005837;28;20000;-65
2023/03/29 03:52:05;;;;;;;;;;;6.80;99.90;;;;;;5005119;28;19928;-65
2023/03/29 03:54:31;;;;;;;;;;;6.80;99.90;;;;;;5007557;28;19925;-64
2023/03/29 03:56:57;;;;;;;;;;;6.80;99.90;;;;;;5009850;28;19917;-64
2023/03/29 03:59:23;;;;;;;;;;;6.80;99.90;;;;;;5009903;28;19913;-64
2023/03/29 04:01:49;;;;;;;;;;;6.90;99.90;;;;;;5006460;28;19967;-65
2023/03/29 04:04:15;;;;;;;;;;;6.90;99.90;;;;;;5007993;28;19960;-64
2023/03/29 04:06:41;;;;;;;;;;;6.90;99.90;;;;;;5003182;28;20350;-65
2023/03/29 04:09:08;;;;;;;;;;;6.90;99.90;;;;;;5007791;28;19913;-66
2023/03/29 04:11:33;;;;;;;;;;;6.90;99.90;;;;;;5007734;28;19976;-65
2023/03/29 04:13:59;;;;;;;;;;;6.90;99.90;;;;;;5008294;28;19917;-65
2023/03/29 04:16:25;;;;;;;;;;;7.00;99.90;;;;;;5006415;28;20009;-64
2023/03/29 04:18:50;;;;;;;;;;;7.00;99.90;;;;;;5006056;28;20004;-64
2023/03/29 04:21:16;;;;;;;;;;;7.00;99.90;;;;;;5006940;28;20011;-64
2023/03/29 04:23:41;;;;;;;;;;;7.00;99.90;;;;;;5009259;28;20375;-65
2023/03/29 04:26:07;;;;;;;;;;;7.00;99.90;;;;;;5007099;28;19918;-64
2023/03/29 04:28:33;;;;;;;;;;;7.00;99.90;;;;;;5010417;28;19924;-65
2023/03/29 04:30:59;;;;;;;;;;;7.00;99.90;;;;;;5009089;28;20540;-64
2023/03/29 04:33:24;;;;;;;;;;;7.00;99.90;;;;;;5009191;28;19920;-65
2023/03/29 04:35:50;;;;;;;;;;;7.00;99.90;;;;;;5009640;28;19921;-65
2023/03/29 04:38:16;;;;;;;;;;;6.90;99.90;;;;;;5004776;28;20569;-65
2023/03/29 04:40:42;;;;;;;;;;;7.00;99.90;;;;;;5006389;28;20006;-65
2023/03/29 04:43:08;;;;;;;;;;;7.10;99.90;;;;;;5004284;28;19963;-64
2023/03/29 04:45:33;;;;;;;;;;;7.10;99.90;;;;;;5005945;28;19961;-65
2023/03/29 04:47:59;;;;;;;;;;;7.20;99.90;;;;;;5005605;28;19913;-64
2023/03/29 04:50:24;;;;;;;;;;;7.20;99.90;;;;;;5007941;28;19913;-64
2023/03/29 04:52:50;;;;;;;;;;;7.20;99.90;;;;;;5006411;28;20466;-63
2023/03/29 04:55:15;;;;;;;;;;;7.10;99.90;;;;;;5003550;28;20386;-62
2023/03/29 04:57:43;;;;;;;;;;;7.20;99.90;;;;;;5003126;28;19966;-64
2023/03/29 05:00:13;;;;;;;;;;;7.00;99.90;;;;;;4996777;28;19917;-63
2023/03/29 05:02:40;;;;;;;;;;;7.00;99.90;;;;;;5005993;28;19917;-64
2023/03/29 05:05:06;;;;;;;;;;;7.00;99.90;;;;;;5008464;28;20067;-63
2023/03/29 05:07:31;;;;;;;;;;;7.10;99.90;;;;;;5006453;28;20373;-64
2023/03/29 05:09:57;;;;;;;;;;;7.10;99.90;;;;;;4998049;28;19913;-64
2023/03/29 05:12:22;;;;;;;;;;;7.00;99.90;;;;;;4999735;28;20016;-65
2023/03/29 05:14:48;;;;;;;;;;;7.00;99.90;;;;;;5001342;28;19924;-63
2023/03/29 05:17:13;;;;;;;;;;;7.00;99.90;;;;;;5006806;28;19913;-64
2023/03/29 05:19:39;;;;;;;;;;;7.00;99.90;;;;;;5006409;28;19960;-64
2023/03/29 05:22:04;;;;;;;;;;;7.10;99.90;;;;;;5007034;28;19973;-64
2023/03/29 05:24:30;;;;;;;;;;;7.10;99.90;;;;;;5006584;28;20423;-63
2023/03/29 05:26:55;;;;;;;;;;;7.10;99.90;;;;;;5005126;28;19914;-64
2023/03/29 05:29:22;;;;;;;;;;;7.10;99.90;;;;;;5005712;28;19920;-64
2023/03/29 05:31:48;;;;;;;;;;;7.10;99.90;;;;;;5009683;28;20383;-64
2023/03/29 05:34:13;;;;;;;;;;;7.10;99.90;;;;;;5007152;28;19920;-64
2023/03/29 05:36:39;;;;;;;;;;;7.10;99.90;;;;;;4999776;28;19917;-65
2023/03/29 05:39:05;;;;;;;;;;;7.10;99.90;;;;;;5006748;28;19925;-64
2023/03/29 05:41:31;;;;;;;;;;;7.20;99.90;;;;;;5009036;28;19990;-64
2023/03/29 05:43:57;;;;;;;;;;;7.20;99.90;;;;;;5007803;28;19914;-65
2023/03/29 05:46:22;;;;;;;;;;;7.20;99.90;;;;;;5009830;28;19910;-63
2023/03/29 05:48:48;;;;;;;;;;;7.30;99.90;;;;;;5003668;28;19945;-65
2023/03/29 05:51:13;;;;;;;;;;;7.30;99.90;;;;;;5004973;28;19967;-64
2023/03/29 05:53:39;;;;;;;;;;;7.40;99.90;;;;;;5002956;28;19913;-64
2023/03/29 05:56:05;;;;;;;;;;;7.40;99.90;;;;;;5005664;28;19925;-63
2023/03/29 05:58:30;;;;;;;;;;;7.40;99.90;;;;;;5010284;28;19914;-64
2023/03/29 06:00:56;;;;;;;;;;;7.40;99.90;;;;;;5006673;28;19921;-64
2023/03/29 06:03:26;;;;;;;;;;;7.40;99.90;;;;;;5009546;28;19918;-63
2023/03/29 06:05:56;;;;;;;;;;;7.40;99.90;;;;;;5008404;28;19920;-64
2023/03/29 06:08:22;;;;;;;;;;;7.50;99.90;;;;;;5004543;28;19914;-64
2023/03/29 06:10:47;;;;;;;;;;;7.50;99.90;;;;;;5005258;28;21678;-65
2023/03/29 06:13:13;;;;;;;;;;;7.60;99.90;;;;;;5008220;28;19914;-65
2023/03/29 06:15:39;;;;;;;;;;;7.60;99.90;;;;;;5005872;28;19932;-64
2023/03/29 06:18:04;;;;;;;;;;;7.60;99.90;;;;;;5007228;28;19932;-64
2023/03/29 06:20:30;;;;;;;;;;;7.60;99.90;;;;;;5008205;28;19920;-64
2023/03/29 06:22:56;;;;;;;;;;;7.70;99.90;;;;;;5007563;28;19913;-64
2023/03/29 06:25:22;;;;;;;;;;;7.80;99.90;;;;;;5005462;28;19913;-64
2023/03/29 06:27:48;;;;;;;;;;;;;;;;;;5010478;28;20512;-63
2023/03/29 06:30:14;;;;;;;;;;;7.80;99.90;;;;;;5008122;28;19914;-64
2023/03/29 06:32:40;;;;;;;;;;;7.80;99.90;;;;;;5001719;28;19999;-63
2023/03/29 06:35:06;;;;;;;;;;;7.90;99.90;;;;;;5007265;28;19921;-64
2023/03/29 06:37:32;;;;;;;;;;;8.00;99.90;;;;;;5001065;28;19913;-64
2023/03/29 06:39:58;;;;;;;;;;;8.00;99.90;;;;;;5008793;28;20113;-63
2023/03/29 06:42:24;;;;;;;;;;;8.10;99.90;;;;;;5005802;28;20335;-63
2023/03/29 06:44:49;;;;;;;;;;;8.10;99.90;;;;;;5009631;28;20008;-62
2023/03/29 06:47:16;;;;;;;;;;;8.20;99.90;;;;;;5008667;28;20287;-63
2023/03/29 06:49:41;;;;;;;;;;;8.20;99.90;;;;;;5008850;28;20450;-64
2023/03/29 06:52:07;;;;;;;;;;;8.30;99.90;;;;;;5003600;28;19914;-63
2023/03/29 06:54:32;;;;;;;;;;;8.30;99.90;;;;;;5006683;28;19975;-64
2023/03/29 06:56:58;;;;;;;;;;;8.40;99.90;;;;;;5008251;28;19921;-64
2023/03/29 06:59:24;;;;;;;;;;;8.40;99.90;;;;;;5008629;28;20009;-64
2023/03/29 07:01:52;;;;;;;;;;;8.50;99.90;;;;;;5009814;28;19913;-64
2023/03/29 07:04:18;;;;;;;;;;;8.60;99.90;;;;;;5008782;28;19921;-63
2023/03/29 07:06:47;;;;;;;;;;;8.70;99.90;;;;;;5008953;28;19996;-63
2023/03/29 07:09:15;;;;;;;;;;;8.80;99.90;;;;;;5010586;28;20379;-63
2023/03/29 07:11:42;;;;;;;;;;;8.90;99.90;;;;;;5008593;28;19956;-64
2023/03/29 07:14:08;;;;;;;;;;;9.00;99.90;;;;;;5007282;28;19960;-65
2023/03/29 07:16:36;;;;;;;;;;;9.00;99.90;;;;;;5011712;28;19918;-64
2023/03/29 07:19:02;;;;;;;;;;;9.10;99.90;;;;;;5014606;28;19914;-65
2023/03/29 07:21:29;;;;;;;;;;;9.00;99.90;;;;;;5010460;28;19924;-65
2023/03/29 07:24:00;;;;;;;;;;;9.00;99.90;;;;;;5007620;28;21388;-65
2023/03/29 07:26:26;;;;;;;;;;;9.00;99.90;;;;;;5013368;28;19914;-64
2023/03/29 07:28:52;;;;;;;;;;;9.00;99.90;;;;;;5011607;28;19980;-65
2023/03/29 07:31:17;;;;;;;;;;;9.00;99.90;;;;;;5011366;28;19913;-65
2023/03/29 07:33:44;;;;;;;;;;;9.00;99.90;;;;;;5009291;28;19968;-65
2023/03/29 07:36:09;;;;;;;;;;;9.00;99.90;;;;;;5008611;28;19921;-65
2023/03/29 07:38:35;;;;;;;;;;;9.00;99.90;;;;;;5009954;28;20402;-65
2023/03/29 07:41:05;;;;;;;;;;;9.10;99.90;;;;;;5012358;28;19909;-66
2023/03/29 07:43:31;;;;;;;;;;;9.10;99.90;;;;;;5008250;28;19913;-66
2023/03/29 07:46:03;;;;;;;;;;;9.20;99.90;;;;;;5011435;28;19921;-64
2023/03/29 07:48:29;;;;;;;;;;;9.30;99.90;;;;;;5011519;28;19917;-64
2023/03/29 07:50:55;;;;;;;;;;;9.40;99.90;;;;;;5012793;28;19939;-66
2023/03/29 07:53:21;;;;;;;;;;;9.50;99.90;;;;;;5013722;28;19997;-66
2023/03/29 07:55:48;;;;;;;;;;;9.50;99.90;;;;;;5004868;28;19967;-66
2023/03/29 07:58:13;;;;;;;;;;;9.60;99.90;;;;;;5013201;28;19913;-66
2023/03/29 08:00:40;;;;;;;;;;;9.60;99.90;;;;;;5011659;28;19913;-65
2023/03/29 08:03:06;;;;;;;;;;;9.70;99.90;;;;;;5012945;28;19914;-65
2023/03/29 08:05:31;;;;;;;;;;;9.70;99.90;;;;;;5008125;28;20294;-64
2023/03/29 08:07:57;;;;;;;;;;;9.80;99.90;;;;;;5012691;28;19917;-65
2023/03/29 08:10:22;;;;;;;;;;;9.90;99.90;;;;;;5012080;28;20015;-66
2023/03/29 08:12:49;;;;;;;;;;;10.00;99.90;;;;;;5011378;28;19961;-66
2023/03/29 08:15:15;;;;;;;;;;;10.10;99.90;;;;;;5012678;28;19921;-66
2023/03/29 08:17:41;;;;;;;;;;;10.20;99.90;;;;;;5006952;28;19917;-66
2023/03/29 08:20:08;;;;;;;;;;;10.30;99.90;;;;;;5011090;28;19920;-65
2023/03/29 08:22:34;;;;;;;;;;;10.50;99.90;;;;;;5009096;28;19964;-65
2023/03/29 08:25:00;;;;;;;;;;;10.60;99.90;;;;;;5006671;28;19914;-63
2023/03/29 08:27:26;;;;;;;;;;;10.70;99.90;;;;;;5000477;28;19913;-66
2023/03/29 08:29:51;;;;;;;;;;;10.70;99.90;;;;;;5013573;28;20351;-65
2023/03/29 08:32:16;;;;;;;;;;;10.70;99.90;;;;;;5010045;28;19960;-66
2023/03/29 08:34:42;;;;;;;;;;;10.70;99.90;;;;;;5013104;28;19957;-65
2023/03/29 08:37:08;;;;;;;;;;;10.70;99.90;;;;;;5012371;28;19928;-65
2023/03/29 08:39:34;;;;;;;;;;;10.70;99.90;;;;;;5009975;28;19917;-65
2023/03/29 08:42:18;;;;;;;;;;;10.70;99.90;;;;;;5013356;28;19920;-65
2023/03/29 08:44:50;;;;;;;;;;;10.80;99.90;;;;;;5014136;28;19915;-65
2023/03/29 08:47:21;;;;;;;;;;;10.80;99.90;;;;;;5005319;28;19914;-65
2023/03/29 08:49:49;;;;;;;;;;;10.90;99.90;;;;;;5010637;28;20339;-65
2023/03/29 08:52:33;;;;;;;;;;;10.90;99.90;;;;;;5013118;28;20338;-65
2023/03/29 08:55:00;;;;;;;;;;;10.80;99.90;;;;;;5013798;28;19920;-65
2023/03/29 08:57:40;;;;;;;;;;;10.90;99.90;;;;;;5012904;28;19915;-65
2023/03/29 09:00:09;;;;;;;;;;;10.90;99.90;;;;;;5007770;28;19913;-64
2023/03/29 09:02:35;;;;;;;;;;;10.90;99.90;;;;;;5009049;28;19967;-65
2023/03/29 09:05:24;;;;;;;;;;;10.90;99.90;;;;;;5007271;28;19918;-66
2023/03/29 09:07:50;;;;;;;;;;;10.90;99.90;;;;;;5003250;28;20391;-65
2023/03/29 09:10:17;;;;;;;;;;;10.90;99.90;;;;;;5012415;28;20020;-67
2023/03/29 09:12:45;;;;;;;;;;;10.90;99.90;;;;;;5007929;28;19924;-66
2023/03/29 09:15:27;;;;;;;;;;;11.00;99.90;;;;;;5011521;28;19969;-66
2023/03/29 09:18:03;;;;;;;;;;;11.10;99.90;;;;;;5007982;28;19914;-66
2023/03/29 09:20:29;;;;;;;;;;;11.10;99.90;;;;;;5009865;28;19997;-66
2023/03/29 09:23:13;;;;;;;;;;;11.20;99.90;;;;;;5010664;28;20383;-66
2023/03/29 09:26:03;;;;;;;;;;;11.10;99.90;;;;;;5011632;28;20857;-65
2023/03/29 09:28:35;;;;;;;;;;;11.20;99.90;;;;;;5011568;28;19918;-66
2023/03/29 09:31:06;;;;;;;;;;;11.20;99.90;;;;;;5007184;28;19917;-63
2023/03/29 09:33:41;;;;;;;;;;;11.20;99.90;;;;;;5004880;28;20221;-63
2023/03/29 09:36:10;;;;;;;;;;;11.20;99.90;;;;;;5003787;28;20020;-65
2023/03/29 09:38:38;;;;;;;;;;;11.20;99.90;;;;;;5005978;28;20377;-64
2023/03/29 09:41:07;;;;;;;;;;;11.20;99.90;;;;;;5008450;28;19944;-67
2023/03/29 09:43:35;;;;;;;;;;;11.20;99.90;;;;;;5004035;28;19914;-65
2023/03/29 09:46:03;;;;;;;;;;;11.30;99.90;;;;;;5005938;28;19921;-65
2023/03/29 09:48:30;;;;;;;;;;;11.40;99.90;;;;;;5000845;28;20460;-64
2023/03/29 09:50:56;;;;;;;;;;;11.50;99.90;;;;;;5007855;28;19913;-65
2023/03/29 09:53:23;;;;;;;;;;;11.60;99.90;;;;;;5006362;28;20398;-64
2023/03/29 09:55:49;;;;;;;;;;;11.60;99.90;;;;;;5006012;28;19926;-64
2023/03/29 09:58:21;;;;;;;;;;;11.70;99.90;;;;;;5005183;28;19952;-64
2023/03/29 10:00:47;;;;;;;;;;;11.80;99.90;;;;;;5005572;28;20032;-64
2023/03/29 10:03:17;;;;;;;;;;;11.90;99.90;;;;;;5004790;28;19917;-64
2023/03/29 10:05:44;;;;;;;;;;;12.00;99.90;;;;;;5008599;28;19914;-64
2023/03/29 10:08:21;;;;;;;;;;;12.10;99.90;;;;;;5008451;28;19917;-64
2023/03/29 10:10:47;;;;;;;;;;;12.20;99.90;;;;;;5005910;28;20387;-65
2023/03/29 10:13:21;;;;;;;;;;;12.20;99.90;;;;;;5006298;28;19917;-64
2023/03/29 10:16:08;;;;;;;;;;;12.30;99.90;;;;;;5007774;28;20396;-65
2023/03/29 10:18:38;;;;;;;;;;;12.30;99.90;;;;;;5006466;28;19928;-64
2023/03/29 10:21:04;;;;;;;;;;;12.30;99.90;;;;;;5008548;28;20056;-64
2023/03/29 10:23:34;;;;;;;;;;;12.30;99.90;;;;;;5008905;28;20487;-64
2023/03/29 10:26:03;;;;;;;;;;;12.40;99.90;;;;;;5006457;28;19914;-64
2023/03/29 10:28:29;;;;;;;;;;;12.60;99.90;;;;;;5003956;28;19956;-64
2023/03/29 10:30:58;;;;;;;;;;;12.70;99.90;;;;;;5003214;28;19924;-64
2023/03/29 10:33:26;;;;;;;;;;;12.90;99.90;;;;;;5007413;28;19918;-65
2023/03/29 10:35:54;;;;;;;;;;;13.00;99.90;;;;;;5006145;28;19921;-64
2023/03/29 10:38:21;;;;;;;;;;;13.20;99.90;;;;;;5009819;28;19918;-60
2023/03/29 10:40:51;;;;;;;;;;;13.40;99.90;;;;;;5008035;28;19913;-64
2023/03/29 10:43:16;;;;;;;;;;;13.60;99.90;;;;;;5006954;28;19924;-66
2023/03/29 10:45:42;;;;;;;;;;;13.60;99.90;;;;;;5006399;28;19917;-65
2023/03/29 10:48:11;;;;;;;;;;;13.90;99.90;;;;;;5007861;28;19921;-65
2023/03/29 10:50:37;;;;;;;;;;;14.20;99.90;;;;;;5004582;28;19987;-65
2023/03/29 10:53:05;;;;;;;;;;;14.30;99.90;;;;;;5012472;28;20435;-65
2023/03/29 10:55:35;;;;;;;;;;;14.50;99.90;;;;;;5008251;28;19917;-66
2023/03/29 10:58:01;;;;;;;;;;;14.70;99.90;;;;;;5008860;28;20298;-65
2023/03/29 11:00:38;;;;;;;;;;;14.90;99.90;;;;;;5007828;28;20056;-64
2023/03/29 11:03:15;;;;;;;;;;;15.00;99.90;;;;;;5009371;28;19913;-66
2023/03/29 11:06:07;;;;;;;;;;;14.90;99.90;;;;;;5010110;28;19913;-65
2023/03/29 11:08:40;;;;;;;;;;;14.80;99.90;;;;;;5004490;28;19924;-66
2023/03/29 11:11:25;;;;;;;;;;;14.60;99.90;;;;;;5009755;28;19924;-65
2023/03/29 11:14:00;;;;;;;;;;;14.70;99.90;;;;;;5013151;28;20406;-66
2023/03/29 11:16:30;;;;;;;;;;;14.70;99.90;;;;;;5013242;28;20326;-67
2023/03/29 11:18:56;;;;;;;;;;;14.50;99.90;;;;;;5005659;28;19933;-66
2023/03/29 11:21:41;;;;;;;;;;;14.40;99.90;;;;;;5007875;28;19921;-65
2023/03/29 11:24:07;;;;;;;;;;;14.40;99.90;;;;;;5005245;28;20462;-64
2023/03/29 11:26:39;;;;;;;;;;;14.40;99.90;;;;;;5008195;28;19914;-65
2023/03/29 11:29:14;;;;;;;;;;;14.40;99.90;;;;;;5007432;28;19925;-65
2023/03/29 11:31:52;;;;;;;;;;;14.50;99.90;;;;;;5006945;28;19918;-66
2023/03/29 11:34:17;;;;;;;;;;;14.60;99.90;;;;;;5006107;28;20000;-65
2023/03/29 11:36:51;;;;;;;;;;;15.00;99.90;;;;;;5002342;28;20029;-67
2023/03/29 11:39:27;;;;;;;;;;;15.30;99.90;;;;;;5007470;28;20494;-64
2023/03/29 11:41:55;;;;;;;;;;;15.50;99.90;;;;;;5003933;28;19917;-65
2023/03/29 11:44:28;;;;;;;;;;;15.80;99.90;;;;;;5005044;28;20030;-64
2023/03/29 11:46:59;;;;;;;;;;;15.80;99.90;;;;;;5004729;28;19996;-63
2023/03/29 11:49:28;;;;;;;;;;;15.80;99.90;;;;;;5008103;28;20437;-64
2023/03/29 11:51:54;;;;;;;;;;;15.80;99.90;;;;;;5004060;28;19967;-63
2023/03/29 11:54:19;;;;;;;;;;;15.80;99.90;;;;;;5005267;28;19917;-63
2023/03/29 11:56:48;;;;;;;;;;;15.90;99.90;;;;;;5006701;28;19917;-66
2023/03/29 11:59:27;;;;;;;;;;;15.80;99.90;;;;;;5004279;28;19917;-63
2023/03/29 12:01:55;;;;;;;;;;;15.80;99.90;;;;;;5007855;28;19920;-65
2023/03/29 12:04:28;;;;;;;;;;;15.90;99.90;;;;;;5007592;28;19914;-65
2023/03/29 12:07:17;;;;;;;;;;;15.70;99.90;;;;;;5005095;28;19922;-66
2023/03/29 12:09:49;;;;;;;;;;;15.90;99.90;;;;;;5005150;28;19929;-66
2023/03/29 12:12:26;;;;;;;;;;;16.10;99.90;;;;;;5004937;28;19923;-65
2023/03/29 12:14:52;;;;;;;;;;;16.00;99.90;;;;;;5002093;28;19984;-65
2023/03/29 12:17:20;;;;;;;;;;;16.00;99.90;;;;;;5008831;28;20403;-65
2023/03/29 12:19:50;;;;;;;;;;;16.00;99.90;;;;;;5006411;28;19917;-63
2023/03/29 12:22:16;;;;;;;;;;;15.90;99.90;;;;;;5004954;28;19922;-64
2023/03/29 12:24:43;;;;;;;;;;;15.80;99.90;;;;;;5007663;28;20539;-64
2023/03/29 12:27:26;;;;;;;;;;;16.10;99.90;;;;;;5004694;28;19918;-64
2023/03/29 12:30:04;;;;;;;;;;;16.20;99.90;;;;;;5012798;28;20299;-63
2023/03/29 12:32:45;;;;;;;;;;;16.20;99.90;;;;;;5006987;28;19921;-63
2023/03/29 12:35:24;;;;;;;;;;;16.20;99.90;;;;;;5003862;28;19996;-64
2023/03/29 12:37:50;;;;;;;;;;;16.80;99.90;;;;;;5008115;28;19926;-63
2023/03/29 12:40:20;;;;;;;;;;;17.00;99.90;;;;;;5006146;28;20276;-64
2023/03/29 12:42:46;;;;;;;;;;;16.90;99.90;;;;;;5007014;28;19917;-64
2023/03/29 12:45:18;;;;;;;;;;;17.00;99.90;;;;;;5003840;28;19996;-64
2023/03/29 12:47:44;;;;;;;;;;;17.30;99.90;;;;;;5005169;28;19921;-63
2023/03/29 12:50:23;;;;;;;;;;;17.60;99.90;;;;;;5003399;28;19917;-62
2023/03/29 12:52:48;;;;;;;;;;;17.30;99.90;;;;;;5002911;28;19921;-64
2023/03/29 12:55:41;;;;;;;;;;;17.60;99.90;;;;;;5003215;28;20023;-62
2023/03/29 12:58:20;;;;;;;;;;;17.60;99.90;;;;;;5012685;28;20346;-64
2023/03/29 13:00:46;;;;;;;;;;;17.70;99.90;;;;;;5005917;28;19996;-66
2023/03/29 13:03:31;;;;;;;;;;;17.30;99.90;;;;;;5002828;28;19917;-66
2023/03/29 13:06:01;;;;;;;;;;;17.30;99.90;;;;;;5005105;28;20484;-65
2023/03/29 13:08:32;;;;;;;;;;;17.10;99.90;;;;;;5011863;28;19921;-65
2023/03/29 13:10:57;;;;;;;;;;;17.00;99.90;;;;;;4997947;28;20387;-65
2023/03/29 13:13:43;;;;;;;;;;;17.30;99.90;;;;;;5001721;28;19921;-64
2023/03/29 13:16:11;;;;;;;;;;;17.10;99.90;;;;;;5004295;28;19968;-65
2023/03/29 13:18:40;;;;;;;;;;;17.30;99.90;;;;;;4999885;28;20356;-63
2023/03/29 13:21:08;;;;;;;;;;;17.30;99.90;;;;;;4998684;28;19971;-64
2023/03/29 13:23:36;;;;;;;;;;;17.70;99.90;;;;;;5002291;28;20371;-64
2023/03/29 13:26:28;;;;;;;;;;;17.80;99.90;;;;;;4990980;28;20981;-64
2023/03/29 13:29:12;;;;;;;;;;;18.00;99.90;;;;;;5002537;28;20506;-63
2023/03/29 13:31:38;;;;;;;;;;;18.50;99.90;;;;;;5005335;28;19913;-64
2023/03/29 13:34:22;;;;;;;;;;;17.90;99.90;;;;;;5004609;28;19975;-64
2023/03/29 13:37:06;;;;;;;;;;;17.90;99.90;;;;;;5004625;28;19921;-63
2023/03/29 13:39:35;;;;;;;;;;;17.50;99.90;;;;;;5002478;28;19917;-64
2023/03/29 13:42:07;;;;;;;;;;;17.60;99.90;;;;;;5003617;28;19914;-64
2023/03/29 13:44:40;;;;;;;;;;;17.60;99.90;;;;;;5007381;28;19917;-64
2023/03/29 13:47:18;;;;;;;;;;;17.40;99.90;;;;;;5004129;28;19931;-63
2023/03/29 13:49:55;;;;;;;;;;;17.30;99.90;;;;;;4998955;28;19924;-64
2023/03/29 13:52:20;;;;;;;;;;;17.40;99.90;;;;;;5002261;28;20490;-63
2023/03/29 13:54:51;;;;;;;;;;;17.40;99.90;;;;;;5001285;28;19956;-64
2023/03/29 13:57:36;;;;;;;;;;;17.40;99.90;;;;;;5000890;28;19922;-64
2023/03/29 14:00:18;;;;;;;;;;;17.50;99.90;;;;;;4998831;28;19917;-64
2023/03/29 14:02:46;;;;;;;;;;;17.50;99.90;;;;;;5003279;28;19953;-64
2023/03/29 14:05:15;;;;;;;;;;;17.50;99.90;;;;;;5000484;28;19918;-63
2023/03/29 14:07:43;;;;;;;;;;;17.30;99.90;;;;;;4999961;28;20004;-64
2023/03/29 14:10:14;;;;;;;;;;;17.40;99.90;;;;;;5001650;28;19917;-63
2023/03/29 14:12:40;;;;;;;;;;;17.50;99.90;;;;;;4999309;28;19975;-63
2023/03/29 14:15:06;;;;;;;;;;;17.50;99.90;;;;;;4998101;28;19921;-65
2023/03/29 14:17:31;;;;;;;;;;;17.30;99.90;;;;;;5003929;28;19914;-64
2023/03/29 14:19:58;;;;;;;;;;;17.30;99.90;;;;;;4999719;28;19917;-63
2023/03/29 14:22:28;;;;;;;;;;;17.20;99.90;;;;;;5000481;28;19957;-63
2023/03/29 14:24:57;;;;;;;;;;;17.20;99.90;;;;;;5006752;28;19917;-63
2023/03/29 14:27:22;;;;;;;;;;;17.20;99.90;;;;;;5003606;28;19917;-63
2023/03/29 14:29:49;;;;;;;;;;;17.20;99.90;;;;;;5007844;28;19924;-65
2023/03/29 14:32:19;;;;;;;;;;;17.20;99.90;;;;;;5003901;28;19972;-65
2023/03/29 14:34:48;;;;;;;;;;;17.40;99.90;;;;;;5005207;28;19921;-65